Time;durP1;ratioP1;P1;durP2;ratioP2;P2;SDS_P1;SDS_P2;PMS_P1;PMS_P2;Temp;Humidity;BMP_temperature;BMP_pressure;BME280_temperature;BME280_humidity;BME280_pressure;Samples;Min_cycle;Max_cycle;Signal;HPM_P1;HPM_P2
2021/12/21 00:00:45;;;;;;;3.35;2.53;;;1.10;99.90;;;1.19;84.80;101646.56;5010290;28;20198;-65
2021/12/21 00:03:12;;;;;;;6.95;3.08;;;1.10;99.90;;;1.21;85.02;101644.84;5008812;28;20669;-64
2021/12/21 00:05:40;;;;;;;7.75;3.97;;;1.20;99.90;;;1.20;85.23;101647.41;5009864;28;20218;-65
2021/12/21 00:08:10;;;;;;;5.00;3.28;;;1.10;99.90;;;1.21;84.58;101652.56;4992980;28;20203;-64
2021/12/21 00:10:43;;;;;;;4.20;3.00;;;1.20;99.90;;;1.17;85.07;101650.06;5010335;28;20210;-64
2021/12/21 00:13:24;;;;;;;5.32;2.60;;;1.10;99.90;;;1.14;84.90;101656.09;4993027;28;20253;-65
2021/12/21 00:16:01;;;;;;;5.00;3.15;;;1.10;99.90;;;1.11;85.16;101647.59;5010656;28;20222;-64
2021/12/21 00:19:05;;;;;;;4.85;3.17;;;1.10;99.90;;;1.08;85.09;101653.63;5010739;28;20221;-65
2021/12/21 00:21:39;;;;;;;3.30;2.50;;;1.00;99.90;;;1.05;84.99;101650.25;5007823;28;20207;-65
2021/12/21 00:24:18;;;;;;;8.88;3.45;;;1.00;99.90;;;1.00;84.90;101634.09;5010586;28;20205;-65
2021/12/21 00:26:45;;;;;;;5.43;3.80;;;0.90;99.90;;;0.95;85.52;101633.31;5008797;28;20233;-64
2021/12/21 00:29:12;;;;;;;3.22;2.75;;;0.90;99.90;;;0.96;85.49;101637.59;5010771;28;20208;-65
2021/12/21 00:31:40;;;;;;;4.93;2.80;;;0.90;99.90;;;0.94;85.40;101634.19;5010596;28;20227;-64
2021/12/21 00:34:07;;;;;;;9.80;3.03;;;0.90;99.90;;;0.94;85.20;101622.16;5009374;28;20285;-64
2021/12/21 00:36:37;;;;;;;4.45;3.00;;;0.90;99.90;;;0.93;85.29;101625.63;5001973;28;20229;-65
2021/12/21 00:39:11;;;;;;;6.05;3.20;;;0.90;99.90;;;0.92;85.18;101615.34;5009410;28;20738;-65
2021/12/21 00:41:38;;;;;;;5.60;3.30;;;0.90;99.90;;;0.89;85.02;101611.13;5011121;28;20202;-64
2021/12/21 00:44:05;;;;;;;3.63;3.20;;;0.90;99.90;;;0.90;85.27;101610.25;4993037;28;20194;-64
2021/12/21 00:46:32;;;;;;;2.72;2.10;;;0.90;99.90;;;0.86;85.40;101608.59;5009122;28;20594;-64
2021/12/21 00:49:12;;;;;;;3.95;2.72;;;0.80;99.90;;;0.87;85.46;101604.31;4991400;28;20205;-65
2021/12/21 00:51:45;;;;;;;3.10;2.58;;;0.80;99.90;;;0.84;85.44;101609.50;5000477;28;20201;-64
2021/12/21 00:54:13;;;;;;;4.38;2.50;;;0.80;99.90;;;0.82;85.22;101604.41;5010239;28;20290;-65
2021/12/21 00:56:40;;;;;;;6.03;2.40;;;0.80;99.90;;;0.79;85.75;101602.72;4991153;28;20218;-65
2021/12/21 00:59:08;;;;;;;5.80;2.70;;;0.80;99.90;;;0.78;85.51;101595.03;5010789;28;20190;-64
2021/12/21 01:01:36;;;;;;;7.75;3.35;;;0.70;99.90;;;0.75;85.55;101592.50;5009798;28;20214;-65
2021/12/21 01:04:08;;;;;;;5.18;3.20;;;0.70;99.90;;;0.76;85.62;101599.38;5009744;28;20201;-64
2021/12/21 01:09:20;;;;;;;5.90;3.10;;;0.80;99.90;;;0.74;86.38;101595.97;5008739;28;20199;-65
2021/12/21 01:11:52;;;;;;;8.35;3.63;;;0.70;99.90;;;0.70;85.72;101596.91;5001613;28;20225;-64
2021/12/21 01:14:54;;;;;;;3.13;2.50;;;0.70;99.90;;;0.67;85.47;101599.50;4993193;28;20199;-65
2021/12/21 01:17:21;;;;;;;14.98;3.35;;;0.60;99.90;;;0.63;86.27;101596.16;5009543;28;20729;-64
2021/12/21 01:20:02;;;;;;;4.05;2.55;;;0.60;99.90;;;0.56;85.98;101591.13;5003589;28;20202;-64
2021/12/21 01:23:01;;;;;;;3.90;3.13;;;0.60;99.90;;;0.54;85.74;101591.16;4991624;28;20289;-65
2021/12/21 01:25:35;;;;;;;5.25;3.50;;;0.50;99.90;;;0.50;86.18;101596.34;5004303;28;20240;-65
2021/12/21 01:28:16;;;;;;;5.28;2.65;;;0.50;99.90;;;0.41;87.04;101604.19;5065657;22;20718;-69
2021/12/21 01:33:49;;;;;;;2.85;2.38;;;0.50;99.90;;;0.46;87.12;101593.00;5050442;28;20565;-69
2021/12/21 01:36:31;;;;;;;4.28;2.10;;;0.50;99.90;;;0.46;87.08;101589.56;5068833;28;20197;-69
2021/12/21 01:39:07;;;;;;;4.32;2.15;;;0.50;99.90;;;0.47;86.86;101581.84;5069027;28;20690;-69
2021/12/21 01:42:17;;;;;;;2.90;2.47;;;0.50;99.90;;;0.46;86.96;101592.13;5052399;28;20596;-70
2021/12/21 01:49:50;;;;;;;2.33;2.13;;;0.50;99.90;;;0.46;86.65;101587.88;5069138;28;20203;-70
2021/12/21 01:52:25;;;;;;;4.90;2.80;;;0.40;99.90;;;0.49;86.72;101592.09;5068456;28;20212;-70
2021/12/21 01:54:54;;;;;;;2.80;2.60;;;0.50;99.90;;;0.49;87.36;101594.69;5050702;28;20222;-69
2021/12/21 01:57:21;;;;;;;5.72;2.80;;;0.50;99.90;;;0.50;86.62;101581.81;5053045;28;20225;-70
2021/12/21 01:59:49;;;;;;;5.25;2.45;;;0.40;99.90;;;0.52;86.63;101581.78;5073388;28;20203;-69
2021/12/21 02:02:19;;;;;;;6.47;2.85;;;0.50;99.90;;;0.50;86.23;101575.81;5062634;28;20201;-71
2021/12/21 02:04:47;;;;;;;3.95;2.85;;;0.50;99.90;;;0.46;86.80;101580.16;5035175;28;20237;-70
2021/12/21 02:07:14;;;;;;;4.57;2.70;;;0.50;99.90;;;0.51;86.26;101580.91;5067438;28;20229;-70
2021/12/21 02:09:41;;;;;;;4.82;2.70;;;0.50;99.90;;;0.48;86.56;101580.97;5063854;28;20211;-70
2021/12/21 02:12:16;;;;;;;2.72;2.53;;;0.50;99.90;;;0.46;86.80;101581.88;5071208;28;20224;-69
2021/12/21 02:14:52;;;;;;;4.20;3.25;;;0.40;99.90;;;0.40;86.93;101587.97;5073148;28;20690;-70
2021/12/21 02:20:38;;;;;;;4.20;2.30;;;0.40;99.90;;;0.44;87.03;101578.47;5054510;28;20193;-72
2021/12/21 02:23:14;;;;;;;2.67;1.80;;;0.40;99.90;;;0.44;86.70;101578.47;5059663;28;20200;-69
2021/12/21 02:31:07;;;;;;;4.53;2.42;;;0.30;99.90;;;0.26;86.96;101583.88;5052937;28;20256;-69
2021/12/21 02:33:35;;;;;;;1.95;1.73;;;0.20;99.90;;;0.24;87.37;101581.34;5051646;28;20713;-69
2021/12/21 02:36:04;;;;;;;2.25;1.90;;;0.20;99.90;;;0.23;86.97;101583.94;5051085;28;20285;-67
2021/12/21 02:38:32;;;;;;;2.95;2.75;;;0.20;99.90;;;0.22;87.17;101585.66;5033669;28;20193;-70
2021/12/21 02:40:59;;;;;;;2.47;2.25;;;0.20;99.90;;;0.23;87.42;101584.78;5052207;28;20209;-71
2021/12/21 02:43:28;;;;;;;3.72;2.97;;;0.20;99.90;;;0.25;87.06;101583.06;5068324;28;20208;-68
2021/12/21 02:45:55;;;;;;;3.22;2.63;;;0.20;99.90;;;0.26;86.94;101574.47;5071007;28;20212;-70
2021/12/21 02:48:22;;;;;;;3.25;2.60;;;0.30;99.90;;;0.27;86.84;101575.31;5037271;28;20665;-69
2021/12/21 02:50:49;;;;;;;2.40;2.30;;;0.20;99.90;;;0.26;87.16;101571.91;5068400;28;20716;-69
2021/12/21 02:53:16;;;;;;;3.33;2.33;;;0.30;99.90;;;0.31;86.69;101566.69;5068612;28;20220;-69
2021/12/21 02:55:43;;;;;;;2.78;2.45;;;0.30;99.90;;;0.30;86.14;101567.59;5051532;28;20208;-70
2021/12/21 02:58:10;;;;;;;3.90;2.45;;;0.30;99.90;;;0.32;86.49;101568.41;5069929;28;20303;-69
2021/12/21 03:00:38;;;;;;;4.60;2.78;;;0.30;99.90;;;0.28;86.63;101561.63;5072223;28;20197;-71
2021/12/21 03:03:13;;;;;;;3.15;2.50;;;0.30;99.90;;;0.29;86.38;101571.00;5071432;28;20219;-69
2021/12/21 03:05:51;;;;;;;6.25;2.92;;;0.30;99.90;;;0.27;86.48;101578.75;5072177;28;20223;-70
2021/12/21 03:08:56;;;;;;;5.28;3.40;;;0.20;99.90;;;0.29;86.33;101571.88;5053529;28;20220;-68
2021/12/21 03:11:35;;;;;;;3.17;2.20;;;0.30;99.90;;;0.32;86.20;101564.09;5068992;28;20204;-66
2021/12/21 03:14:05;;;;;;;3.92;2.58;;;0.30;99.90;;;0.33;85.78;101573.50;5070473;28;20224;-69
2021/12/21 03:16:36;;;;;;;2.13;1.90;;;0.30;99.90;;;0.31;86.25;101569.25;5070733;28;20577;-69
2021/12/21 03:19:10;;;;;;;5.20;2.42;;;0.30;99.90;;;0.29;86.38;101568.44;5052625;28;20207;-70
2021/12/21 03:21:38;;;;;;;5.50;2.63;;;0.30;99.90;;;0.28;86.66;101566.75;5052041;28;20208;-70
2021/12/21 03:24:06;;;;;;;3.65;2.40;;;0.30;99.90;;;0.29;86.28;101569.28;5033624;28;20216;-70
2021/12/21 03:26:34;;;;;;;2.47;2.38;;;0.30;99.90;;;0.27;86.51;101565.91;5067514;28;20228;-69
2021/12/21 03:29:01;;;;;;;2.40;2.20;;;0.30;99.90;;;0.32;86.19;101558.16;5051300;28;20572;-69
2021/12/21 03:31:29;;;;;;;2.65;2.05;;;0.30;99.90;;;0.28;86.11;101556.50;5069487;28;20201;-69
2021/12/21 03:33:56;;;;;;;2.42;2.00;;;0.30;99.90;;;0.19;86.41;101566.88;5072093;28;20232;-70
2021/12/21 03:36:23;;;;;;;2.70;2.25;;;0.10;99.90;;;0.13;86.40;101567.00;5053969;28;20196;-70
2021/12/21 03:39:16;;;;;;;3.72;2.40;;;0.10;99.90;;;0.00;86.36;101562.00;5053763;28;20194;-69
2021/12/21 03:41:45;;;;;;;3.72;2.40;;;0.00;99.90;;;-0.01;86.66;101554.34;5071614;28;20207;-69
2021/12/21 03:44:12;;;;;;;3.22;2.15;;;0.00;99.90;;;-0.08;87.04;101556.16;5070523;28;20782;-69
2021/12/21 03:46:46;;;;;;;3.60;2.70;;;-0.10;99.90;;;-0.04;86.84;101551.81;5054342;28;20229;-69
2021/12/21 03:49:53;;;;;;;3.00;2.80;;;0.00;99.90;;;-0.05;86.62;101547.56;5036476;28;20218;-69
2021/12/21 03:52:15;;;;;;;4.97;2.20;;;0.00;99.90;;;-0.04;86.72;101556.94;5065923;28;20211;-70
2021/12/21 03:54:45;;;;;;;5.20;1.90;;;0.00;99.90;;;-0.03;86.90;101556.09;5070406;28;20201;-70
2021/12/21 03:57:13;;;;;;;2.50;2.30;;;0.00;99.90;;;-0.04;86.79;101552.66;5072040;28;20225;-68
2021/12/21 03:59:42;;;;;;;4.90;2.15;;;0.00;99.90;;;-0.04;86.65;101552.66;5066078;28;20205;-68
2021/12/21 04:02:11;;;;;;;4.32;2.78;;;-0.10;99.90;;;-0.05;86.69;101543.28;5065355;28;20211;-69
2021/12/21 04:04:41;;;;;;;2.42;2.22;;;0.00;99.90;;;-0.06;86.71;101540.72;5051683;28;20201;-69
2021/12/21 04:07:08;;;;;;;4.20;2.78;;;0.00;99.90;;;-0.06;86.90;101544.13;5053556;28;20251;-68
2021/12/21 04:09:35;;;;;;;2.95;2.30;;;-0.10;99.90;;;-0.12;87.07;101544.22;5070617;28;20197;-70
2021/12/21 04:12:03;;;;;;;1.92;1.75;;;-0.10;99.90;;;-0.13;86.97;101542.53;5070565;28;20209;-69
2021/12/21 04:14:32;;;;;;;8.00;3.75;;;-0.10;99.90;;;-0.14;86.93;101547.69;5048475;28;20727;-68
2021/12/21 04:16:59;;;;;;;4.82;2.55;;;-0.10;99.90;;;-0.13;87.54;101539.94;5055885;28;20301;-70
2021/12/21 04:19:26;;;;;;;4.95;2.17;;;-0.10;99.90;;;-0.11;86.92;101547.66;5032312;28;20212;-68
2021/12/21 04:21:53;;;;;;;2.97;2.60;;;-0.10;99.90;;;-0.14;87.00;101545.97;5060718;28;20203;-68
2021/12/21 04:24:20;;;;;;;4.40;3.30;;;-0.10;99.90;;;-0.10;86.84;101545.06;5052503;28;20207;-68
2021/12/21 04:26:47;;;;;;;2.80;2.60;;;-0.10;99.90;;;-0.08;86.71;101557.84;5065417;28;20228;-69
2021/12/21 04:29:15;;;;;;;3.25;2.95;;;0.00;99.90;;;-0.13;86.56;101550.22;5067342;28;20200;-68
2021/12/21 04:31:42;;;;;;;3.47;2.80;;;-0.10;99.90;;;-0.16;86.68;101542.59;5050242;28;20205;-69
2021/12/21 04:34:08;;;;;;;3.28;2.63;;;-0.10;99.90;;;-0.18;87.30;101539.19;5050009;28;20221;-70
2021/12/21 04:36:37;;;;;;;2.67;2.47;;;-0.20;99.90;;;-0.22;87.39;101534.13;5068155;28;20274;-70
2021/12/21 04:39:15;;;;;;;3.40;2.50;;;-0.20;99.90;;;-0.20;87.35;101542.63;5070919;28;20216;-68
2021/12/21 04:41:43;;;;;;;5.60;3.30;;;-0.20;99.90;;;-0.24;87.58;101539.28;5069823;28;20710;-68
2021/12/21 04:44:28;;;;;;;7.20;3.55;;;-0.20;99.90;;;-0.20;87.28;101533.25;5068612;28;20300;-68
2021/12/21 04:46:55;;;;;;;3.42;2.92;;;-0.20;99.90;;;-0.21;86.99;101536.66;5069393;28;20229;-69
2021/12/21 04:49:22;;;;;;;3.10;2.80;;;-0.20;99.90;;;-0.20;86.94;101538.38;5048511;28;20715;-68
2021/12/21 04:51:49;;;;;;;4.60;2.95;;;-0.20;99.90;;;-0.21;87.30;101531.53;5055044;28;20204;-69
2021/12/21 04:54:16;;;;;;;4.78;2.53;;;-0.20;99.90;;;-0.26;87.63;101533.31;5069544;28;20315;-70
2021/12/21 04:56:43;;;;;;;3.00;2.10;;;-0.20;99.90;;;-0.29;87.48;101537.63;5050865;28;20312;-68
2021/12/21 04:59:10;;;;;;;5.15;3.35;;;-0.30;99.90;;;-0.33;88.02;101535.97;5053649;28;20204;-67
2021/12/21 05:01:42;;;;;;;3.60;3.30;;;-0.30;99.90;;;-0.33;87.78;101535.97;5067198;28;20670;-69
2021/12/21 05:04:09;;;;;;;3.67;3.20;;;-0.30;99.90;;;-0.35;88.27;101530.00;5069007;28;20291;-68
2021/12/21 05:06:36;;;;;;;5.57;3.40;;;-0.40;99.90;;;-0.34;88.08;101537.69;5051263;28;20318;-69
2021/12/21 05:09:10;;;;;;;4.43;3.25;;;-0.30;99.90;;;-0.33;87.84;101536.81;5052210;28;20211;-69
2021/12/21 05:11:39;;;;;;;7.22;3.83;;;-0.30;99.90;;;-0.33;87.78;101531.69;5052471;28;20204;-68
2021/12/21 05:14:07;;;;;;;3.13;2.83;;;-0.30;99.90;;;-0.33;88.04;101539.41;5068780;28;20220;-68
2021/12/21 05:16:35;;;;;;;4.47;2.80;;;-0.30;99.90;;;-0.33;88.03;101536.81;5067534;28;20231;-68
2021/12/21 05:19:02;;;;;;;3.33;2.03;;;-0.30;99.90;;;-0.31;87.73;101540.22;5069547;28;20226;-68
2021/12/21 05:21:30;;;;;;;5.40;3.20;;;-0.30;99.90;;;-0.33;88.08;101528.28;5060756;28;20194;-68
2021/12/21 05:23:57;;;;;;;6.22;3.50;;;-0.30;99.90;;;-0.35;88.05;101530.00;5050745;28;20205;-69
2021/12/21 05:26:24;;;;;;;14.00;4.22;;;-0.40;99.90;;;-0.32;87.95;101537.69;5069174;28;20211;-68
2021/12/21 05:28:51;;;;;;;3.55;2.70;;;-0.30;99.90;;;-0.36;87.75;101534.28;5050999;28;20208;-69
2021/12/21 05:31:18;;;;;;;8.85;3.60;;;-0.30;99.90;;;-0.37;88.09;101537.75;5051384;28;20204;-68
2021/12/21 05:33:49;;;;;;;6.22;3.55;;;-0.30;99.90;;;-0.44;88.49;101537.81;5073056;28;20226;-68
2021/12/21 05:36:17;;;;;;;8.30;3.40;;;-0.40;99.90;;;-0.40;88.22;101540.31;5071913;28;20207;-68
2021/12/21 05:38:49;;;;;;;4.03;3.38;;;-0.40;99.90;;;-0.45;88.29;101537.00;5074109;28;20200;-69
2021/12/21 05:41:29;;;;;;;3.20;2.45;;;-0.40;99.90;;;-0.47;88.27;101543.81;5073196;28;20233;-67
2021/12/21 05:43:56;;;;;;;7.85;3.70;;;-0.40;99.90;;;-0.47;88.57;101538.69;5068618;28;20668;-68
2021/12/21 05:46:23;;;;;;;9.55;3.50;;;-0.40;99.90;;;-0.44;88.72;101542.94;5070965;28;20197;-70
2021/12/21 05:48:52;;;;;;;4.80;3.45;;;-0.40;99.90;;;-0.46;89.06;101549.81;5064245;28;20215;-69
2021/12/21 05:51:20;;;;;;;5.30;3.70;;;-0.40;99.90;;;-0.53;88.50;101543.09;5072484;28;20193;-69
2021/12/21 05:53:48;;;;;;;7.18;3.40;;;-0.50;99.90;;;-0.48;88.42;101543.84;5072636;28;20220;-69
2021/12/21 05:56:16;;;;;;;4.55;3.63;;;-0.50;99.90;;;-0.53;88.57;101543.09;5072935;28;20287;-68
2021/12/21 05:58:43;;;;;;;5.30;3.58;;;-0.50;99.90;;;-0.51;88.49;101552.44;5054203;28;20199;-69
2021/12/21 06:01:10;;;;;;;7.25;4.18;;;-0.50;99.90;;;-0.50;88.55;101549.00;5052202;28;20204;-69
2021/12/21 06:03:37;;;;;;;6.80;3.50;;;-0.50;99.90;;;-0.46;88.12;101549.81;5052445;28;20211;-70
2021/12/21 06:06:11;;;;;;;6.57;3.38;;;-0.40;99.90;;;-0.57;88.59;101552.50;5057438;28;20203;-67
2021/12/21 06:08:38;;;;;;;3.33;2.88;;;-0.50;99.90;;;-0.52;88.15;101547.31;5054811;28;20205;-71
2021/12/21 06:11:10;;;;;;;11.38;2.88;;;-0.50;99.90;;;-0.53;88.38;101551.59;5050861;28;20335;-70
2021/12/21 06:22:44;;;;;;;8.55;3.60;;;-0.50;99.90;;;-0.52;88.54;101545.63;5071926;28;20203;-69
2021/12/21 06:27:36;;;;;;;5.32;3.15;;;-0.60;99.90;;;-0.63;88.81;101552.59;5065918;28;20232;-69
2021/12/21 06:30:04;;;;;;;4.75;3.65;;;-0.60;99.90;;;-0.57;88.46;101556.78;5036047;28;20205;-69
2021/12/21 06:32:34;;;;;;;4.63;3.67;;;-0.50;99.90;;;-0.57;88.25;101560.19;5053318;28;20727;-70
2021/12/21 06:35:02;;;;;;;6.70;3.30;;;-0.60;99.90;;;-0.65;88.90;101559.44;5052463;28;20250;-69
2021/12/21 06:37:29;;;;;;;5.55;3.15;;;-0.60;99.90;;;-0.66;88.67;101562.84;5034187;28;20217;-69
2021/12/21 06:39:57;;;;;;;3.38;2.80;;;-0.60;99.90;;;-0.64;89.13;101562.88;5065845;28;20197;-68
2021/12/21 06:42:24;;;;;;;6.15;2.90;;;-0.60;99.90;;;-0.62;89.09;101568.81;5070299;28;20193;-69
2021/12/21 06:44:56;;;;;;;5.72;3.78;;;-0.60;99.90;;;-0.60;89.18;101557.69;5059769;28;20222;-68
2021/12/21 06:52:56;;;;;;;3.63;2.33;;;-0.60;99.90;;;-0.62;88.87;101564.53;5061852;28;20202;-69
2021/12/21 06:55:23;;;;;;;5.88;3.80;;;-0.50;99.90;;;-0.71;89.25;101562.09;5059747;28;20222;-69
2021/12/21 06:57:49;;;;;;;5.72;3.50;;;-0.60;99.90;;;-0.67;89.58;101568.88;5046928;28;20220;-70
2021/12/21 07:00:17;;;;;;;5.22;3.00;;;-0.60;99.90;;;-0.70;89.70;101558.63;5043133;28;20198;-69
2021/12/21 07:02:45;;;;;;;4.45;3.60;;;-0.70;99.90;;;-0.69;89.74;101551.81;5059265;28;20197;-70
2021/12/21 07:05:13;;;;;;;2.90;2.70;;;-0.70;99.90;;;-0.70;89.30;101556.06;5066390;28;20200;-70
2021/12/21 07:07:41;;;;;;;4.82;3.45;;;-0.70;99.90;;;-0.70;88.88;101560.38;5063492;28;20227;-70
2021/12/21 07:10:13;;;;;;;3.95;3.50;;;-0.70;99.90;;;-0.77;89.42;101563.84;5054143;28;20578;-70
2021/12/21 07:18:24;;;;;;;4.20;2.95;;;-0.80;99.90;;;-0.81;89.78;101570.75;5056164;28;20217;-70
2021/12/21 07:20:51;;;;;;;8.77;3.22;;;-0.70;99.90;;;-0.78;89.47;101568.13;5050164;28;20573;-68
2021/12/21 07:23:18;;;;;;;4.00;3.58;;;-0.70;99.90;;;-0.76;89.49;101571.53;5060940;28;20243;-70
2021/12/21 07:25:47;;;;;;;3.40;3.10;;;-0.70;99.90;;;-0.75;89.18;101572.38;5044324;28;20292;-70
2021/12/21 07:28:14;;;;;;;2.80;2.65;;;-0.70;99.90;;;-0.71;88.29;101571.47;5063905;22;20339;-62
2021/12/21 07:30:41;;;;;;;3.90;2.92;;;-0.60;99.90;;;-0.74;88.21;101569.78;5037738;28;20494;-63
2021/12/21 07:33:08;;;;;;;3.17;2.58;;;-0.70;99.90;;;-0.76;88.91;101571.53;5028957;28;20588;-63
2021/12/21 07:35:35;;;;;;;8.23;3.53;;;-0.70;99.90;;;-0.71;89.08;101574.91;5044393;28;20216;-64
2021/12/21 07:38:04;;;;;;;4.20;3.80;;;-0.70;99.90;;;-0.75;88.91;101573.22;5017229;28;20219;-63
2021/12/21 07:40:31;;;;;;;2.90;2.67;;;-0.70;99.90;;;-0.62;88.64;101579.94;5012237;28;20278;-63
2021/12/21 07:43:00;;;;;;;7.38;4.20;;;-0.60;99.90;;;-0.65;88.60;101582.50;5009315;28;20217;-64
2021/12/21 07:45:27;;;;;;;8.00;4.13;;;-0.60;99.90;;;-0.70;88.60;101576.56;5010964;28;20217;-63
2021/12/21 07:47:54;;;;;;;8.55;3.20;;;-0.60;99.90;;;-0.68;88.08;101581.72;5010333;28;20219;-63
2021/12/21 07:50:22;;;;;;;4.85;2.80;;;-0.60;99.90;;;-0.64;88.67;101585.94;4993502;28;20654;-63
2021/12/21 07:52:51;;;;;;;4.70;3.17;;;-0.60;99.90;;;-0.61;88.08;101589.28;5010702;28;20674;-63
2021/12/21 07:55:18;;;;;;;5.75;2.97;;;-0.50;99.90;;;-0.54;87.72;101595.19;4993601;28;20710;-63
2021/12/21 07:57:45;;;;;;;5.45;3.28;;;-0.40;99.90;;;-0.48;87.57;101587.44;4986120;28;20219;-63
2021/12/21 08:00:13;;;;;;;5.15;2.97;;;-0.40;99.90;;;-0.43;87.30;101586.53;5011311;28;20706;-63
2021/12/21 08:02:41;;;;;;;6.57;3.50;;;-0.30;99.90;;;-0.39;86.62;101588.19;5008365;28;20679;-63
2021/12/21 08:05:10;;;;;;;8.60;3.70;;;-0.30;99.90;;;-0.40;86.68;101589.03;5009284;28;20199;-63
2021/12/21 08:07:47;;;;;;;3.35;2.55;;;-0.30;99.90;;;-0.37;86.65;101589.03;5009265;28;20230;-64
2021/12/21 08:10:22;;;;;;;9.73;3.10;;;-0.20;99.90;;;-0.36;86.58;101583.00;5000075;28;20293;-63
2021/12/21 08:12:49;;;;;;;5.45;3.35;;;-0.20;99.90;;;-0.34;86.61;101588.97;5010065;28;20210;-63
2021/12/21 08:15:16;;;;;;;3.95;3.55;;;-0.20;99.90;;;-0.27;86.26;101587.19;5007835;28;20230;-64
2021/12/21 08:17:43;;;;;;;9.02;4.80;;;-0.10;99.90;;;-0.23;86.73;101588.81;5009468;28;21636;-63
2021/12/21 08:20:10;;;;;;;3.63;3.15;;;-0.10;99.90;;;0.50;87.05;101601.50;5001732;28;20205;-63
2021/12/21 08:22:37;;;;;;;5.25;3.28;;;0.60;99.90;;;2.00;81.36;101590.09;5010652;28;20306;-64
2021/12/21 08:25:06;;;;;;;9.48;4.30;;;2.30;99.90;;;3.66;71.92;101585.03;4992321;28;20203;-63
2021/12/21 08:27:33;;;;;;;8.45;3.13;;;4.20;99.90;;;5.45;65.92;101586.94;5006851;28;20234;-65
2021/12/21 08:30:00;;;;;;;7.28;3.33;;;6.20;99.90;;;7.23;58.98;101593.72;5006765;28;20206;-65
2021/12/21 08:32:27;;;;;;;6.33;4.50;;;8.10;99.90;;;8.84;53.76;101591.38;5008190;28;20210;-66
2021/12/21 08:34:54;;;;;;;6.50;3.63;;;9.90;95.60;;;10.07;50.18;101604.03;4992481;28;20696;-65
2021/12/21 08:37:21;;;;;;;4.40;3.47;;;11.10;90.30;;;11.60;47.08;101598.59;5011141;28;21094;-65
2021/12/21 08:39:48;;;;;;;5.77;4.10;;;12.70;83.30;;;12.60;42.65;101600.09;4987234;28;20629;-66
2021/12/21 08:42:16;;;;;;;7.73;4.53;;;13.90;72.00;;;13.89;41.09;101600.84;4985010;28;20609;-66
2021/12/21 08:44:46;;;;;;;4.93;4.00;;;15.10;67.60;;;14.94;38.36;101605.41;4997977;28;20938;-67
2021/12/21 08:47:14;;;;;;;6.10;4.67;;;16.50;61.50;;;15.79;36.02;101606.75;4984746;28;20675;-64
2021/12/21 08:49:44;;;;;;;6.90;4.83;;;17.50;57.00;;;16.80;34.35;101603.81;5004960;28;20645;-65
2021/12/21 08:52:11;;;;;;;7.83;4.77;;;18.50;52.90;;;17.55;32.59;101609.72;5006057;28;20740;-65
2021/12/21 08:54:38;;;;;;;5.93;4.80;;;19.60;50.00;;;17.51;32.99;101601.25;5029323;28;20668;-63
2021/12/21 08:57:05;;;;;;;7.70;5.50;;;19.50;49.50;;;17.46;31.54;101599.94;5018180;28;20664;-64
2021/12/21 08:59:32;;;;;;;8.50;6.00;;;19.80;47.20;;;17.28;32.55;101601.50;4992115;28;20643;-64
2021/12/21 09:01:59;;;;;;;6.33;5.13;;;19.40;47.80;;;16.54;32.15;101595.41;5008358;28;20640;-65
2021/12/21 09:04:27;;;;;;;7.40;5.00;;;18.80;46.50;;;14.94;33.96;101596.69;5006522;28;20633;-66
2021/12/21 09:06:54;;;;;;;9.17;5.20;;;16.80;48.90;;;12.53;37.48;101593.56;5001861;28;20661;-64
2021/12/21 09:09:21;;;;;;;5.90;4.90;;;13.70;53.30;;;10.64;41.68;101584.31;4978420;28;20622;-64
2021/12/21 09:11:49;;;;;;;5.67;4.20;;;11.10;58.90;;;8.69;46.25;101589.53;5013027;28;21271;-65
2021/12/21 09:14:17;;;;;;;7.83;4.63;;;8.90;65.50;;;7.30;50.12;101595.16;5009824;28;20675;-64
2021/12/21 09:16:45;;;;;;;8.53;4.57;;;7.30;75.80;;;6.17;53.95;101591.19;5014781;28;20639;-64
2021/12/21 09:19:11;;;;;;;5.70;4.17;;;6.20;88.30;;;5.26;56.56;101598.00;5031381;28;20618;-64
2021/12/21 09:21:38;;;;;;;4.20;3.50;;;5.20;95.20;;;4.52;59.61;101595.31;5004711;28;20637;-65
2021/12/21 09:24:08;;;;;;;3.43;3.10;;;4.60;99.90;;;3.83;63.16;101595.72;5013967;28;20676;-64
2021/12/21 09:26:36;;;;;;;7.27;3.87;;;3.90;99.90;;;3.44;65.34;101596.84;4994867;28;22280;-65
2021/12/21 09:29:04;;;;;;;4.00;3.20;;;3.50;99.90;;;3.14;67.26;101594.19;4996052;28;20700;-63
2021/12/21 09:31:31;;;;;;;7.15;3.70;;;3.20;99.90;;;2.85;68.91;101590.69;5013071;28;20217;-63
2021/12/21 09:33:58;;;;;;;3.90;3.50;;;3.00;99.90;;;2.65;69.66;101593.75;4978231;28;20214;-62
2021/12/21 09:36:26;;;;;;;4.65;4.10;;;2.70;99.90;;;2.36;70.99;101596.16;5013638;28;20203;-62
2021/12/21 09:38:53;;;;;;;5.32;3.15;;;2.40;99.90;;;2.25;72.00;101601.56;5012254;28;20206;-62
2021/12/21 09:41:21;;;;;;;3.38;3.08;;;2.30;99.90;;;2.06;73.38;101596.84;5005765;28;20206;-63
2021/12/21 09:43:49;;;;;;;7.00;3.33;;;2.10;99.90;;;1.94;73.94;101600.50;4999177;28;20202;-63
2021/12/21 09:46:16;;;;;;;4.30;3.10;;;2.00;99.90;;;1.84;75.22;101599.03;5000031;28;20199;-63
2021/12/21 09:48:44;;;;;;;4.15;3.50;;;1.90;99.90;;;1.68;76.70;101591.66;5012615;28;20214;-63
2021/12/21 09:51:11;;;;;;;5.22;3.45;;;1.70;99.90;;;1.69;76.65;101593.34;5012085;28;20230;-60
2021/12/21 09:53:38;;;;;;;5.32;3.60;;;1.70;99.90;;;1.61;77.06;101595.22;5013572;28;20199;-62
2021/12/21 09:56:06;;;;;;;10.52;3.45;;;1.70;99.90;;;1.59;76.93;101587.53;4999981;28;20700;-63
2021/12/21 09:58:34;;;;;;;6.32;2.63;;;1.60;99.90;;;1.62;77.24;101584.88;5011323;28;20261;-62
2021/12/21 10:01:03;;;;;;;4.70;3.20;;;1.70;99.90;;;1.62;77.74;101596.94;5012278;28;20236;-62
2021/12/21 10:03:30;;;;;;;4.40;3.50;;;1.70;99.90;;;1.57;78.23;101597.03;5009269;28;20199;-63
2021/12/21 10:06:10;;;;;;;4.35;2.60;;;1.60;99.90;;;1.64;78.00;101597.75;4999352;28;20203;-62
2021/12/21 10:08:38;;;;;;;3.05;2.75;;;1.70;99.90;;;1.55;78.68;101597.03;4994207;28;20227;-62
2021/12/21 10:11:07;;;;;;;5.50;3.80;;;1.60;99.90;;;1.44;79.51;101592.97;5007013;28;20202;-62
2021/12/21 10:13:37;;;;;;;5.80;3.20;;;1.40;99.90;;;1.45;79.21;101585.22;5013791;28;20218;-62
2021/12/21 10:16:06;;;;;;;2.85;2.65;;;1.50;99.90;;;1.52;79.61;101591.97;5008144;28;20245;-62
2021/12/21 10:18:41;;;;;;;6.07;4.13;;;1.50;99.90;;;1.55;79.31;101576.44;5029592;28;20217;-65
2021/12/21 10:21:13;;;;;;;4.43;2.70;;;1.60;99.90;;;1.61;79.59;101582.34;5006199;28;20198;-63
2021/12/21 10:23:45;;;;;;;5.18;3.72;;;1.70;99.90;;;1.63;79.09;101576.31;5012521;28;20194;-63
2021/12/21 10:26:26;;;;;;;2.58;2.30;;;1.70;99.90;;;1.63;78.82;101584.03;4990901;28;20585;-62
2021/12/21 10:28:58;;;;;;;5.85;4.32;;;1.70;99.90;;;1.72;79.31;101581.28;5006037;28;20212;-63
2021/12/21 10:31:36;;;;;;;3.35;2.85;;;1.80;99.90;;;1.69;78.90;101578.75;5013609;28;20211;-64
2021/12/21 10:34:17;;;;;;;5.15;3.92;;;1.70;99.90;;;1.70;78.88;101577.88;5013502;28;20301;-63
2021/12/21 10:36:51;;;;;;;3.90;2.78;;;1.80;99.90;;;1.79;79.08;101582.81;5011857;28;20198;-64
2021/12/21 10:39:32;;;;;;;3.47;3.17;;;1.90;99.90;;;1.80;79.22;101570.81;5012131;28;20191;-63
2021/12/21 10:42:04;;;;;;;5.20;3.00;;;1.80;99.90;;;1.85;79.71;101574.16;5012186;28;20230;-63
2021/12/21 10:44:32;;;;;;;6.78;4.00;;;1.90;99.90;;;1.87;79.37;101573.25;5009746;28;20297;-64
2021/12/21 10:46:59;;;;;;;3.35;3.05;;;1.90;99.90;;;1.89;78.91;101571.47;5004824;28;20226;-63
2021/12/21 10:49:34;;;;;;;8.02;4.05;;;1.90;99.90;;;1.92;78.85;101566.25;5006959;28;20209;-63
2021/12/21 10:52:05;;;;;;;6.15;3.63;;;2.00;99.90;;;1.92;78.81;101557.66;4991268;28;20232;-63
2021/12/21 10:54:39;;;;;;;3.33;3.00;;;1.90;99.90;;;1.88;79.13;101559.47;5006722;28;20718;-63
2021/12/21 10:57:23;;;;;;;4.82;3.42;;;1.90;99.90;;;1.90;79.28;101555.13;5010586;28;20305;-63
2021/12/21 10:59:53;;;;;;;6.10;3.92;;;1.90;99.90;;;1.93;79.32;101551.66;5006843;28;20225;-63
2021/12/21 11:02:31;;;;;;;6.22;3.53;;;1.90;99.90;;;1.95;79.72;101552.47;5008015;28;20203;-64
2021/12/21 11:05:11;;;;;;;5.75;3.65;;;2.00;99.90;;;1.97;79.65;101551.56;5008691;28;20612;-64
2021/12/21 11:10:19;;;;;;;5.03;2.97;;;2.00;99.90;;;2.04;79.28;101555.69;4989116;28;20209;-64
2021/12/21 11:13:12;;;;;;;3.85;3.55;;;2.10;99.90;;;1.95;80.27;101542.19;5012643;28;20203;-64
2021/12/21 11:15:40;;;;;;;3.47;3.10;;;2.00;99.90;;;2.00;80.32;101540.34;4994797;28;20252;-64
2021/12/21 11:18:13;;;;;;;4.72;2.70;;;2.00;99.90;;;2.07;79.53;101529.88;4993063;28;20230;-64